PWSweather.com
Personal Weather Stations
Station Observations
SD92115WX
El Cerrito Stoneybluff, San Diego, CA 92115

El Cerrito StoneybluffSan Diego, CA 92115

Lat: 32.754096, Lon: -117.066705

Elevation: 420

Station Type: Davis Vantage Vue

http://stoneybluff.com

High Low Average
Temperature 68.5°F20.3°C 53.4°F11.9°C 59.2°F15.1°C
Dew Point 56.7°F13.7°C 50.9°F10.5°C 53.7°F12.1°C
Winds 8.5 mph 13.7 kmh Calm Calm 2.0 mph SW3.2 kmh SW
Wind Gusts 15.9 mph25.6 kmh -- 4.0 mph6.4 kmh
Humidity 95% 61% 83%
Pressure 30.09 in1019.0 mb 29.99 in1015.6 mb -
Precipitation 0.06 in1.5 mm - -
Hour Temp Dew Point Humidity Winds Wind Gusts Pressure Precip Precip Rate Daily Precip Total
12:00 AM 54.5°F12.5°C 52.0°F11.1°C 91% Calm Calm -- 30.01 in1016.3 mb 0.00 in0.0 mm 0.00 in0.0 mm 0.00 in0.0 mm
12:05 AM 54.5°F12.5°C 52.0°F11.1°C 91% Calm Calm -- 30.01 in1016.3 mb 0.00 in0.0 mm 0.00 in0.0 mm 0.00 in0.0 mm
12:10 AM 54.7°F12.6°C 52.2°F11.2°C 91% Calm Calm -- 30.01 in1016.3 mb 0.00 in0.0 mm 0.00 in0.0 mm 0.00 in0.0 mm
12:15 AM 54.7°F12.6°C 51.8°F11.0°C 90% Calm Calm -- 30.01 in1016.3 mb 0.00 in0.0 mm 0.00 in0.0 mm 0.00 in0.0 mm
12:20 AM 54.5°F12.5°C 51.6°F10.9°C 90% Calm Calm -- 30.01 in1016.3 mb 0.00 in0.0 mm 0.00 in0.0 mm 0.00 in0.0 mm
12:25 AM 54.3°F12.4°C 51.8°F11.0°C 91% Calm Calm -- 30.01 in1016.3 mb 0.00 in0.0 mm 0.00 in0.0 mm 0.00 in0.0 mm
12:30 AM 54.3°F12.4°C 51.8°F11.0°C 91% Calm Calm -- 30.01 in1016.3 mb 0.00 in0.0 mm 0.00 in0.0 mm 0.00 in0.0 mm
12:35 AM 54.3°F12.4°C 51.8°F11.0°C 91% Calm Calm -- 30.00 in1015.9 mb 0.00 in0.0 mm 0.00 in0.0 mm 0.00 in0.0 mm
12:40 AM 54.3°F12.4°C 51.8°F11.0°C 91% Calm Calm -- 30.00 in1015.9 mb 0.00 in0.0 mm 0.00 in0.0 mm 0.00 in0.0 mm
12:45 AM 54.7°F12.6°C 52.3°F11.3°C 92% Calm Calm -- 30.00 in1015.9 mb 0.00 in0.0 mm 0.00 in0.0 mm 0.00 in0.0 mm
12:50 AM 54.7°F12.6°C 52.2°F11.2°C 91% Calm Calm -- 30.00 in1015.9 mb 0.00 in0.0 mm 0.00 in0.0 mm 0.00 in0.0 mm
12:55 AM 54.3°F12.4°C 51.8°F11.0°C 91% Calm Calm -- 29.99 in1015.6 mb 0.00 in0.0 mm 0.00 in0.0 mm 0.00 in0.0 mm
01:00 AM 54.1°F12.3°C 51.6°F10.9°C 91% Calm Calm -- 30.00 in1015.9 mb 0.00 in0.0 mm 0.00 in0.0 mm 0.00 in0.0 mm
01:05 AM 54.1°F12.3°C 51.6°F10.9°C 91% Calm Calm -- 29.99 in1015.6 mb 0.00 in0.0 mm 0.00 in0.0 mm 0.00 in0.0 mm
01:10 AM 54.1°F12.3°C 51.8°F11.0°C 92% Calm Calm -- 30.00 in1015.9 mb 0.00 in0.0 mm 0.00 in0.0 mm 0.00 in0.0 mm
01:15 AM 54.1°F12.3°C 51.8°F11.0°C 92% Calm Calm -- 30.00 in1015.9 mb 0.00 in0.0 mm 0.00 in0.0 mm 0.00 in0.0 mm
01:20 AM 54.1°F12.3°C 51.6°F10.9°C 91% Calm Calm -- 30.00 in1015.9 mb 0.00 in0.0 mm 0.00 in0.0 mm 0.00 in0.0 mm
01:25 AM 54.1°F12.3°C 51.8°F11.0°C 92% Calm Calm -- 30.00 in1015.9 mb 0.00 in0.0 mm 0.00 in0.0 mm 0.00 in0.0 mm
01:30 AM 54.1°F12.3°C 51.8°F11.0°C 92% Calm Calm -- 30.00 in1015.9 mb 0.00 in0.0 mm 0.00 in0.0 mm 0.00 in0.0 mm
01:35 AM 54.1°F12.3°C 51.8°F11.0°C 92% Calm Calm -- 30.00 in1015.9 mb 0.00 in0.0 mm 0.00 in0.0 mm 0.00 in0.0 mm
01:40 AM 54.1°F12.3°C 51.8°F11.0°C 92% Calm Calm -- 30.00 in1015.9 mb 0.00 in0.0 mm 0.00 in0.0 mm 0.00 in0.0 mm
01:45 AM 54.3°F12.4°C 52.0°F11.1°C 92% Calm Calm -- 30.00 in1015.9 mb 0.00 in0.0 mm 0.00 in0.0 mm 0.00 in0.0 mm
01:50 AM 54.3°F12.4°C 52.0°F11.1°C 92% Calm Calm -- 30.00 in1015.9 mb 0.00 in0.0 mm 0.00 in0.0 mm 0.00 in0.0 mm
01:55 AM 54.3°F12.4°C 52.0°F11.1°C 92% Calm Calm -- 30.00 in1015.9 mb 0.00 in0.0 mm 0.00 in0.0 mm 0.00 in0.0 mm
02:00 AM 54.1°F12.3°C 51.6°F10.9°C 91% Calm Calm -- 30.00 in1015.9 mb 0.00 in0.0 mm 0.00 in0.0 mm 0.00 in0.0 mm
02:05 AM 54.1°F12.3°C 51.8°F11.0°C 92% Calm Calm -- 30.00 in1015.9 mb 0.00 in0.0 mm 0.00 in0.0 mm 0.00 in0.0 mm
02:10 AM 54.1°F12.3°C 51.8°F11.0°C 92% Calm Calm -- 30.00 in1015.9 mb 0.00 in0.0 mm 0.00 in0.0 mm 0.00 in0.0 mm
02:15 AM 54.3°F12.4°C 52.0°F11.1°C 92% Calm Calm -- 30.00 in1015.9 mb 0.00 in0.0 mm 0.00 in0.0 mm 0.00 in0.0 mm
02:20 AM 54.1°F12.3°C 51.8°F11.0°C 92% Calm Calm -- 30.00 in1015.9 mb 0.00 in0.0 mm 0.00 in0.0 mm 0.00 in0.0 mm
02:25 AM 54.1°F12.3°C 51.8°F11.0°C 92% Calm Calm -- 30.00 in1015.9 mb 0.00 in0.0 mm 0.00 in0.0 mm 0.00 in0.0 mm
02:30 AM 54.1°F12.3°C 51.8°F11.0°C 92% Calm Calm -- 30.00 in1015.9 mb 0.00 in0.0 mm 0.00 in0.0 mm 0.00 in0.0 mm
02:35 AM 54.3°F12.4°C 52.0°F11.1°C 92% Calm Calm -- 30.00 in1015.9 mb 0.00 in0.0 mm 0.00 in0.0 mm 0.00 in0.0 mm
02:40 AM 54.3°F12.4°C 52.0°F11.1°C 92% Calm Calm -- 29.99 in1015.6 mb 0.00 in0.0 mm 0.00 in0.0 mm 0.00 in0.0 mm
02:45 AM 54.3°F12.4°C 52.0°F11.1°C 92% Calm Calm -- 30.00 in1015.9 mb 0.00 in0.0 mm 0.00 in0.0 mm 0.00 in0.0 mm
02:50 AM 54.7°F12.6°C 52.7°F11.5°C 93% 0.4 mph SSW0.6 kmh SSW 1.1 mph1.8 kmh 30.00 in1015.9 mb 0.00 in0.0 mm 0.00 in0.0 mm 0.00 in0.0 mm
02:55 AM 54.7°F12.6°C 52.7°F11.5°C 93% Calm Calm -- 30.00 in1015.9 mb 0.01 in0.3 mm 0.12 in3.0 mm 0.01 in0.3 mm
03:00 AM 54.7°F12.6°C 52.7°F11.5°C 93% Calm Calm -- 30.00 in1015.9 mb 0.02 in0.5 mm 0.01 in0.3 mm 0.02 in0.5 mm
03:05 AM 54.9°F12.7°C 52.9°F11.6°C 93% Calm Calm -- 30.00 in1015.9 mb 0.02 in0.5 mm 0.00 in0.0 mm 0.02 in0.5 mm
03:10 AM 54.9°F12.7°C 52.9°F11.6°C 93% 0.2 mph NNW0.3 kmh NNW 1.1 mph1.8 kmh 30.01 in1016.3 mb 0.02 in0.5 mm 0.00 in0.0 mm 0.02 in0.5 mm
03:15 AM 55.0°F12.8°C 53.1°F11.7°C 93% Calm Calm 3.1 mph5.0 kmh 30.00 in1015.9 mb 0.03 in0.8 mm 0.12 in3.0 mm 0.03 in0.8 mm
03:20 AM 55.0°F12.8°C 53.1°F11.7°C 93% Calm Calm -- 30.00 in1015.9 mb 0.04 in1.0 mm 0.12 in3.0 mm 0.04 in1.0 mm
03:25 AM 54.9°F12.7°C 52.9°F11.6°C 93% Calm Calm -- 30.00 in1015.9 mb 0.04 in1.0 mm 0.00 in0.0 mm 0.04 in1.0 mm
03:30 AM 54.9°F12.7°C 52.9°F11.6°C 93% Calm Calm -- 30.01 in1016.3 mb 0.04 in1.0 mm 0.00 in0.0 mm 0.04 in1.0 mm
03:35 AM 54.9°F12.7°C 53.2°F11.8°C 94% Calm Calm -- 30.01 in1016.3 mb 0.04 in1.0 mm 0.00 in0.0 mm 0.04 in1.0 mm
03:40 AM 54.9°F12.7°C 53.2°F11.8°C 94% Calm Calm -- 30.01 in1016.3 mb 0.04 in1.0 mm 0.00 in0.0 mm 0.04 in1.0 mm
03:45 AM 54.9°F12.7°C 53.2°F11.8°C 94% Calm Calm -- 30.01 in1016.3 mb 0.04 in1.0 mm 0.00 in0.0 mm 0.04 in1.0 mm
03:50 AM 54.9°F12.7°C 53.2°F11.8°C 94% Calm Calm -- 30.01 in1016.3 mb 0.04 in1.0 mm 0.00 in0.0 mm 0.04 in1.0 mm
03:55 AM 54.9°F12.7°C 53.2°F11.8°C 94% Calm Calm -- 30.01 in1016.3 mb 0.03 in0.8 mm 0.00 in0.0 mm 0.04 in1.0 mm
04:00 AM 54.9°F12.7°C 53.2°F11.8°C 94% Calm Calm 1.1 mph1.8 kmh 30.01 in1016.3 mb 0.02 in0.5 mm 0.00 in0.0 mm 0.04 in1.0 mm
04:05 AM 54.9°F12.7°C 53.2°F11.8°C 94% Calm Calm -- 30.01 in1016.3 mb 0.02 in0.5 mm 0.00 in0.0 mm 0.04 in1.0 mm
04:10 AM 54.9°F12.7°C 53.2°F11.8°C 94% Calm Calm -- 30.01 in1016.3 mb 0.02 in0.5 mm 0.00 in0.0 mm 0.04 in1.0 mm
04:15 AM 54.9°F12.7°C 53.2°F11.8°C 94% Calm Calm -- 30.01 in1016.3 mb 0.01 in0.3 mm 0.00 in0.0 mm 0.04 in1.0 mm
04:20 AM 54.9°F12.7°C 53.2°F11.8°C 94% Calm Calm -- 30.01 in1016.3 mb 0.00 in0.0 mm 0.00 in0.0 mm 0.04 in1.0 mm
04:25 AM 54.9°F12.7°C 53.2°F11.8°C 94% Calm Calm -- 30.01 in1016.3 mb 0.00 in0.0 mm 0.00 in0.0 mm 0.04 in1.0 mm
04:30 AM 54.7°F12.6°C 53.1°F11.7°C 94% Calm Calm -- 30.02 in1016.6 mb 0.00 in0.0 mm 0.00 in0.0 mm 0.04 in1.0 mm
04:35 AM 54.9°F12.7°C 53.2°F11.8°C 94% Calm Calm -- 30.01 in1016.3 mb 0.00 in0.0 mm 0.00 in0.0 mm 0.04 in1.0 mm
04:40 AM 54.9°F12.7°C 53.2°F11.8°C 94% Calm Calm -- 30.01 in1016.3 mb 0.00 in0.0 mm 0.00 in0.0 mm 0.04 in1.0 mm
04:45 AM 54.7°F12.6°C 53.1°F11.7°C 94% Calm Calm -- 30.01 in1016.3 mb 0.00 in0.0 mm 0.00 in0.0 mm 0.04 in1.0 mm
04:50 AM 54.9°F12.7°C 53.2°F11.8°C 94% Calm Calm -- 30.01 in1016.3 mb 0.00 in0.0 mm 0.00 in0.0 mm 0.04 in1.0 mm
04:55 AM 54.7°F12.6°C 53.1°F11.7°C 94% Calm Calm -- 30.01 in1016.3 mb 0.00 in0.0 mm 0.00 in0.0 mm 0.04 in1.0 mm
05:00 AM 54.7°F12.6°C 53.1°F11.7°C 94% Calm Calm -- 30.01 in1016.3 mb 0.00 in0.0 mm 0.00 in0.0 mm 0.04 in1.0 mm
05:05 AM 54.7°F12.6°C 53.1°F11.7°C 94% Calm Calm -- 30.01 in1016.3 mb 0.00 in0.0 mm 0.00 in0.0 mm 0.04 in1.0 mm
05:10 AM 54.9°F12.7°C 53.4°F11.9°C 95% Calm Calm -- 30.02 in1016.6 mb 0.00 in0.0 mm 0.00 in0.0 mm 0.04 in1.0 mm
05:15 AM 54.9°F12.7°C 53.4°F11.9°C 95% Calm Calm -- 30.01 in1016.3 mb 0.00 in0.0 mm 0.00 in0.0 mm 0.04 in1.0 mm
05:20 AM 54.9°F12.7°C 53.4°F11.9°C 95% Calm Calm -- 30.01 in1016.3 mb 0.00 in0.0 mm 0.00 in0.0 mm 0.04 in1.0 mm
05:25 AM 54.9°F12.7°C 53.4°F11.9°C 95% Calm Calm -- 30.01 in1016.3 mb 0.00 in0.0 mm 0.00 in0.0 mm 0.04 in1.0 mm
05:30 AM 54.9°F12.7°C 53.4°F11.9°C 95% Calm Calm -- 30.02 in1016.6 mb 0.00 in0.0 mm 0.00 in0.0 mm 0.04 in1.0 mm
05:35 AM 54.9°F12.7°C 53.4°F11.9°C 95% Calm Calm -- 30.01 in1016.3 mb 0.01 in0.3 mm 0.12 in3.0 mm 0.05 in1.3 mm
05:40 AM 54.9°F12.7°C 53.4°F11.9°C 95% Calm Calm -- 30.01 in1016.3 mb 0.01 in0.3 mm 0.00 in0.0 mm 0.05 in1.3 mm
05:45 AM 54.9°F12.7°C 53.4°F11.9°C 95% Calm Calm -- 30.01 in1016.3 mb 0.01 in0.3 mm 0.00 in0.0 mm 0.05 in1.3 mm
05:50 AM 54.9°F12.7°C 53.4°F11.9°C 95% Calm Calm -- 30.01 in1016.3 mb 0.01 in0.3 mm 0.00 in0.0 mm 0.05 in1.3 mm
05:55 AM 54.9°F12.7°C 53.4°F11.9°C 95% Calm Calm -- 30.01 in1016.3 mb 0.01 in0.3 mm 0.00 in0.0 mm 0.05 in1.3 mm
06:00 AM 54.9°F12.7°C 53.4°F11.9°C 95% Calm Calm -- 30.02 in1016.6 mb 0.01 in0.3 mm 0.00 in0.0 mm 0.05 in1.3 mm
06:05 AM 54.9°F12.7°C 53.4°F11.9°C 95% Calm Calm -- 30.02 in1016.6 mb 0.01 in0.3 mm 0.00 in0.0 mm 0.05 in1.3 mm
06:10 AM 54.9°F12.7°C 53.4°F11.9°C 95% Calm Calm -- 30.02 in1016.6 mb 0.01 in0.3 mm 0.00 in0.0 mm 0.05 in1.3 mm
06:15 AM 54.9°F12.7°C 53.4°F11.9°C 95% Calm Calm -- 30.02 in1016.6 mb 0.01 in0.3 mm 0.00 in0.0 mm 0.05 in1.3 mm
06:20 AM 54.9°F12.7°C 53.4°F11.9°C 95% Calm Calm -- 30.03 in1016.9 mb 0.02 in0.5 mm 0.12 in3.0 mm 0.06 in1.5 mm
06:25 AM 55.0°F12.8°C 53.6°F12.0°C 95% Calm Calm 1.1 mph1.8 kmh 30.02 in1016.6 mb 0.02 in0.5 mm 0.00 in0.0 mm 0.06 in1.5 mm
06:30 AM 55.0°F12.8°C 53.6°F12.0°C 95% Calm Calm -- 30.02 in1016.6 mb 0.02 in0.5 mm 0.00 in0.0 mm 0.06 in1.5 mm
06:35 AM 55.2°F12.9°C 53.8°F12.1°C 95% Calm Calm -- 30.03 in1016.9 mb 0.01 in0.3 mm 0.00 in0.0 mm 0.06 in1.5 mm
06:40 AM 55.2°F12.9°C 53.8°F12.1°C 95% Calm Calm -- 30.03 in1016.9 mb 0.01 in0.3 mm 0.00 in0.0 mm 0.06 in1.5 mm
06:45 AM 55.6°F13.1°C 54.1°F12.3°C 95% Calm Calm -- 30.03 in1016.9 mb 0.01 in0.3 mm 0.00 in0.0 mm 0.06 in1.5 mm
06:50 AM 55.8°F13.2°C 54.3°F12.4°C 95% Calm Calm -- 30.03 in1016.9 mb 0.01 in0.3 mm 0.00 in0.0 mm 0.06 in1.5 mm
06:55 AM 55.8°F13.2°C 54.3°F12.4°C 95% Calm Calm -- 30.03 in1016.9 mb 0.01 in0.3 mm 0.00 in0.0 mm 0.06 in1.5 mm
07:00 AM 55.8°F13.2°C 54.3°F12.4°C 95% 0.2 mph SSE0.3 kmh SSE 1.1 mph1.8 kmh 30.03 in1016.9 mb 0.01 in0.3 mm 0.00 in0.0 mm 0.06 in1.5 mm
07:05 AM 55.9°F13.3°C 54.5°F12.5°C 95% Calm Calm -- 30.03 in1016.9 mb 0.01 in0.3 mm 0.00 in0.0 mm 0.06 in1.5 mm
07:10 AM 55.9°F13.3°C 54.5°F12.5°C 95% Calm Calm -- 30.03 in1016.9 mb 0.01 in0.3 mm 0.00 in0.0 mm 0.06 in1.5 mm
07:15 AM 55.9°F13.3°C 54.3°F12.4°C 94% Calm Calm -- 30.03 in1016.9 mb 0.01 in0.3 mm 0.00 in0.0 mm 0.06 in1.5 mm
07:20 AM 55.9°F13.3°C 54.3°F12.4°C 94% 0.4 mph NW0.6 kmh NW 2.0 mph3.2 kmh 30.04 in1017.3 mb 0.00 in0.0 mm 0.00 in0.0 mm 0.06 in1.5 mm
07:25 AM 55.9°F13.3°C 54.5°F12.5°C 95% Calm Calm 2.0 mph3.2 kmh 30.04 in1017.3 mb 0.00 in0.0 mm 0.00 in0.0 mm 0.06 in1.5 mm
07:30 AM 56.1°F13.4°C 54.5°F12.5°C 94% 0.2 mph WNW0.3 kmh WNW 2.0 mph3.2 kmh 30.04 in1017.3 mb 0.00 in0.0 mm 0.00 in0.0 mm 0.06 in1.5 mm
07:35 AM 56.5°F13.6°C 55.0°F12.8°C 95% Calm Calm -- 30.04 in1017.3 mb 0.00 in0.0 mm 0.00 in0.0 mm 0.06 in1.5 mm
07:40 AM 56.8°F13.8°C 55.2°F12.9°C 94% 0.4 mph NNE0.6 kmh NNE 3.1 mph5.0 kmh 30.04 in1017.3 mb 0.00 in0.0 mm 0.00 in0.0 mm 0.06 in1.5 mm
07:45 AM 56.8°F13.8°C 55.2°F12.9°C 94% 0.2 mph N0.3 kmh N 2.0 mph3.2 kmh 30.05 in1017.6 mb 0.00 in0.0 mm 0.00 in0.0 mm 0.06 in1.5 mm
07:50 AM 57.0°F13.9°C 55.2°F12.9°C 94% 0.2 mph NNW0.3 kmh NNW 1.1 mph1.8 kmh 30.05 in1017.6 mb 0.00 in0.0 mm 0.00 in0.0 mm 0.06 in1.5 mm
07:55 AM 57.2°F14.0°C 55.2°F12.9°C 93% Calm Calm 1.1 mph1.8 kmh 30.05 in1017.6 mb 0.00 in0.0 mm 0.00 in0.0 mm 0.06 in1.5 mm
08:00 AM 57.4°F14.1°C 55.4°F13.0°C 93% Calm Calm -- 30.05 in1017.6 mb 0.00 in0.0 mm 0.00 in0.0 mm 0.06 in1.5 mm
08:05 AM 58.3°F14.6°C 56.3°F13.5°C 93% 0.2 mph NE0.3 kmh NE 1.1 mph1.8 kmh 30.06 in1017.9 mb 0.00 in0.0 mm 0.00 in0.0 mm 0.06 in1.5 mm
08:10 AM 58.5°F14.7°C 55.8°F13.2°C 91% 0.4 mph NNW0.6 kmh NNW 2.0 mph3.2 kmh 30.06 in1017.9 mb 0.00 in0.0 mm 0.00 in0.0 mm 0.06 in1.5 mm
08:15 AM 58.8°F14.9°C 56.1°F13.4°C 91% Calm Calm 1.1 mph1.8 kmh 30.05 in1017.6 mb 0.00 in0.0 mm 0.00 in0.0 mm 0.06 in1.5 mm
08:20 AM 59.5°F15.3°C 56.7°F13.7°C 90% Calm Calm 1.1 mph1.8 kmh 30.05 in1017.6 mb 0.00 in0.0 mm 0.00 in0.0 mm 0.06 in1.5 mm
08:25 AM 60.3°F15.7°C 56.3°F13.5°C 87% 2.5 mph NW4.0 kmh NW 5.4 mph8.7 kmh 30.05 in1017.6 mb 0.00 in0.0 mm 0.00 in0.0 mm 0.06 in1.5 mm
08:30 AM 60.4°F15.8°C 56.3°F13.5°C 86% 0.9 mph NW1.4 kmh NW 3.1 mph5.0 kmh 30.05 in1017.6 mb 0.00 in0.0 mm 0.00 in0.0 mm 0.06 in1.5 mm
08:35 AM 60.4°F15.8°C 55.2°F12.9°C 83% 1.8 mph NW2.9 kmh NW 3.1 mph5.0 kmh 30.05 in1017.6 mb 0.00 in0.0 mm 0.00 in0.0 mm 0.06 in1.5 mm
08:40 AM 60.3°F15.7°C 55.0°F12.8°C 83% 0.4 mph WNW0.6 kmh WNW 4.3 mph6.9 kmh 30.04 in1017.3 mb 0.00 in0.0 mm 0.00 in0.0 mm 0.06 in1.5 mm
08:45 AM 60.6°F15.9°C 55.4°F13.0°C 83% Calm Calm 1.1 mph1.8 kmh 30.04 in1017.3 mb 0.00 in0.0 mm 0.00 in0.0 mm 0.06 in1.5 mm
08:50 AM 61.7°F16.5°C 56.5°F13.6°C 83% 0.4 mph S0.6 kmh S 2.0 mph3.2 kmh 30.04 in1017.3 mb 0.00 in0.0 mm 0.00 in0.0 mm 0.06 in1.5 mm
08:55 AM 62.4°F16.9°C 56.1°F13.4°C 80% 0.4 mph SW0.6 kmh SW 3.1 mph5.0 kmh 30.04 in1017.3 mb 0.00 in0.0 mm 0.00 in0.0 mm 0.06 in1.5 mm
09:00 AM 62.4°F16.9°C 55.4°F13.0°C 78% Calm Calm 1.1 mph1.8 kmh 30.05 in1017.6 mb 0.00 in0.0 mm 0.00 in0.0 mm 0.06 in1.5 mm
09:05 AM 62.1°F16.7°C 55.0°F12.8°C 78% 2.0 mph NNW3.2 kmh NNW 5.4 mph8.7 kmh 30.05 in1017.6 mb 0.00 in0.0 mm 0.00 in0.0 mm 0.06 in1.5 mm
09:10 AM 61.5°F16.4°C 54.7°F12.6°C 78% 2.5 mph WNW4.0 kmh WNW 4.3 mph6.9 kmh 30.05 in1017.6 mb 0.00 in0.0 mm 0.00 in0.0 mm 0.06 in1.5 mm
09:15 AM 61.5°F16.4°C 54.7°F12.6°C 78% 2.9 mph W4.7 kmh W 5.4 mph8.7 kmh 30.06 in1017.9 mb 0.00 in0.0 mm 0.00 in0.0 mm 0.06 in1.5 mm
09:20 AM 61.7°F16.5°C 54.5°F12.5°C 77% 1.8 mph NW2.9 kmh NW 5.4 mph8.7 kmh 30.06 in1017.9 mb 0.00 in0.0 mm 0.00 in0.0 mm 0.06 in1.5 mm
09:25 AM 62.4°F16.9°C 56.1°F13.4°C 80% 0.2 mph WNW0.3 kmh WNW 4.3 mph6.9 kmh 30.06 in1017.9 mb 0.00 in0.0 mm 0.00 in0.0 mm 0.06 in1.5 mm
09:30 AM 63.0°F17.2°C 54.9°F12.7°C 75% 2.5 mph WSW4.0 kmh WSW 5.4 mph8.7 kmh 30.06 in1017.9 mb 0.00 in0.0 mm 0.00 in0.0 mm 0.06 in1.5 mm
09:35 AM 62.8°F17.1°C 54.7°F12.6°C 75% 4.3 mph NW6.9 kmh NW 9.6 mph15.4 kmh 30.06 in1017.9 mb 0.00 in0.0 mm 0.00 in0.0 mm 0.06 in1.5 mm
09:40 AM 62.4°F16.9°C 55.0°F12.8°C 77% 2.2 mph WNW3.5 kmh WNW 5.4 mph8.7 kmh 30.06 in1017.9 mb 0.00 in0.0 mm 0.00 in0.0 mm 0.06 in1.5 mm
09:45 AM 62.2°F16.8°C 54.9°F12.7°C 77% 1.8 mph WSW2.9 kmh WSW 5.4 mph8.7 kmh 30.06 in1017.9 mb 0.00 in0.0 mm 0.00 in0.0 mm 0.06 in1.5 mm
09:50 AM 62.1°F16.7°C 55.0°F12.8°C 78% 2.5 mph NW4.0 kmh NW 6.3 mph10.1 kmh 30.06 in1017.9 mb 0.00 in0.0 mm 0.00 in0.0 mm 0.06 in1.5 mm
09:55 AM 62.2°F16.8°C 55.2°F12.9°C 78% 3.1 mph WSW5.0 kmh WSW 7.4 mph11.9 kmh 30.06 in1017.9 mb 0.00 in0.0 mm 0.00 in0.0 mm 0.06 in1.5 mm
10:00 AM 62.4°F16.9°C 55.0°F12.8°C 77% 0.2 mph WSW0.3 kmh WSW 5.4 mph8.7 kmh 30.06 in1017.9 mb 0.00 in0.0 mm 0.00 in0.0 mm 0.06 in1.5 mm
10:05 AM 62.4°F16.9°C 54.7°F12.6°C 76% 1.3 mph W2.1 kmh W 4.3 mph6.9 kmh 30.06 in1017.9 mb 0.00 in0.0 mm 0.00 in0.0 mm 0.06 in1.5 mm
10:10 AM 62.2°F16.8°C 54.5°F12.5°C 76% 0.9 mph W1.4 kmh W 5.4 mph8.7 kmh 30.05 in1017.6 mb 0.00 in0.0 mm 0.00 in0.0 mm 0.06 in1.5 mm
10:15 AM 62.6°F17.0°C 55.6°F13.1°C 78% 1.8 mph WSW2.9 kmh WSW 5.4 mph8.7 kmh 30.05 in1017.6 mb 0.00 in0.0 mm 0.00 in0.0 mm 0.06 in1.5 mm
10:20 AM 63.3°F17.4°C 55.6°F13.1°C 76% 4.3 mph WNW6.9 kmh WNW 9.6 mph15.4 kmh 30.05 in1017.6 mb 0.00 in0.0 mm 0.00 in0.0 mm 0.06 in1.5 mm
10:25 AM 63.3°F17.4°C 54.5°F12.5°C 73% 4.5 mph WNW7.2 kmh WNW 7.4 mph11.9 kmh 30.05 in1017.6 mb 0.00 in0.0 mm 0.00 in0.0 mm 0.06 in1.5 mm
10:30 AM 63.1°F17.3°C 54.7°F12.6°C 74% 0.7 mph NW1.1 kmh NW 5.4 mph8.7 kmh 30.05 in1017.6 mb 0.00 in0.0 mm 0.00 in0.0 mm 0.06 in1.5 mm
10:35 AM 63.7°F17.6°C 55.9°F13.3°C 76% 0.9 mph NNW1.4 kmh NNW 7.4 mph11.9 kmh 30.05 in1017.6 mb 0.00 in0.0 mm 0.00 in0.0 mm 0.06 in1.5 mm
10:40 AM 63.9°F17.7°C 54.7°F12.6°C 72% 3.8 mph WSW6.1 kmh WSW 6.3 mph10.1 kmh 30.05 in1017.6 mb 0.00 in0.0 mm 0.00 in0.0 mm 0.06 in1.5 mm
10:45 AM 63.9°F17.7°C 54.7°F12.6°C 72% 2.9 mph W4.7 kmh W 7.4 mph11.9 kmh 30.05 in1017.6 mb 0.00 in0.0 mm 0.00 in0.0 mm 0.06 in1.5 mm
10:50 AM 64.2°F17.9°C 55.4°F13.0°C 73% 2.2 mph WSW3.5 kmh WSW 7.4 mph11.9 kmh 30.05 in1017.6 mb 0.00 in0.0 mm 0.00 in0.0 mm 0.06 in1.5 mm
10:55 AM 64.0°F17.8°C 54.5°F12.5°C 71% 5.6 mph WSW9.0 kmh WSW 9.6 mph15.4 kmh 30.05 in1017.6 mb 0.00 in0.0 mm 0.00 in0.0 mm 0.06 in1.5 mm
11:00 AM 63.7°F17.6°C 54.1°F12.3°C 71% 3.6 mph WSW5.8 kmh WSW 8.5 mph13.7 kmh 30.05 in1017.6 mb 0.00 in0.0 mm 0.00 in0.0 mm 0.06 in1.5 mm
11:05 AM 63.7°F17.6°C 54.1°F12.3°C 71% 3.6 mph WSW5.8 kmh WSW 9.6 mph15.4 kmh 30.05 in1017.6 mb 0.00 in0.0 mm 0.00 in0.0 mm 0.06 in1.5 mm
11:10 AM 64.0°F17.8°C 54.5°F12.5°C 71% 4.5 mph SW7.2 kmh SW 8.5 mph13.7 kmh 30.05 in1017.6 mb 0.00 in0.0 mm 0.00 in0.0 mm 0.06 in1.5 mm
11:15 AM 64.6°F18.1°C 55.0°F12.8°C 71% 4.5 mph SW7.2 kmh SW 8.5 mph13.7 kmh 30.04 in1017.3 mb 0.00 in0.0 mm 0.00 in0.0 mm 0.06 in1.5 mm
11:20 AM 64.9°F18.3°C 55.4°F13.0°C 71% 2.0 mph W3.2 kmh W 6.3 mph10.1 kmh 30.04 in1017.3 mb 0.00 in0.0 mm 0.00 in0.0 mm 0.06 in1.5 mm
11:25 AM 64.8°F18.2°C 54.3°F12.4°C 69% 2.9 mph W4.7 kmh W 7.4 mph11.9 kmh 30.05 in1017.6 mb 0.00 in0.0 mm 0.00 in0.0 mm 0.06 in1.5 mm
11:30 AM 64.8°F18.2°C 54.7°F12.6°C 70% 2.9 mph SW4.7 kmh SW 9.6 mph15.4 kmh 30.04 in1017.3 mb 0.00 in0.0 mm 0.00 in0.0 mm 0.06 in1.5 mm
11:35 AM 64.8°F18.2°C 54.7°F12.6°C 70% 4.7 mph WSW7.6 kmh WSW 8.5 mph13.7 kmh 30.04 in1017.3 mb 0.00 in0.0 mm 0.00 in0.0 mm 0.06 in1.5 mm
11:40 AM 64.8°F18.2°C 54.7°F12.6°C 70% 2.9 mph SW4.7 kmh SW 8.5 mph13.7 kmh 30.04 in1017.3 mb 0.00 in0.0 mm 0.00 in0.0 mm 0.06 in1.5 mm
11:45 AM 65.5°F18.6°C 54.7°F12.6°C 68% 4.5 mph WNW7.2 kmh WNW 8.5 mph13.7 kmh 30.04 in1017.3 mb 0.00 in0.0 mm 0.00 in0.0 mm 0.06 in1.5 mm
11:50 AM 65.7°F18.7°C 54.9°F12.7°C 68% 3.6 mph NW5.8 kmh NW 9.6 mph15.4 kmh 30.04 in1017.3 mb 0.00 in0.0 mm 0.00 in0.0 mm 0.06 in1.5 mm
11:55 AM 65.3°F18.5°C 54.9°F12.7°C 69% 2.5 mph W4.0 kmh W 9.6 mph15.4 kmh 30.04 in1017.3 mb 0.00 in0.0 mm 0.00 in0.0 mm 0.06 in1.5 mm
12:00 PM 65.1°F18.4°C 54.0°F12.2°C 67% 2.2 mph WSW3.5 kmh WSW 6.3 mph10.1 kmh 30.03 in1016.9 mb 0.00 in0.0 mm 0.00 in0.0 mm 0.06 in1.5 mm
12:05 PM 65.7°F18.7°C 55.6°F13.1°C 70% 4.0 mph WSW6.4 kmh WSW 10.5 mph16.9 kmh 30.03 in1016.9 mb 0.00 in0.0 mm 0.00 in0.0 mm 0.06 in1.5 mm
12:10 PM 66.6°F19.2°C 56.1°F13.4°C 69% 3.8 mph WNW6.1 kmh WNW 7.4 mph11.9 kmh 30.03 in1016.9 mb 0.00 in0.0 mm 0.00 in0.0 mm 0.06 in1.5 mm
12:15 PM 66.7°F19.3°C 54.7°F12.6°C 65% 6.0 mph NNW9.7 kmh NNW 11.6 mph18.7 kmh 30.03 in1016.9 mb 0.00 in0.0 mm 0.00 in0.0 mm 0.06 in1.5 mm
12:20 PM 66.6°F19.2°C 54.9°F12.7°C 66% 2.7 mph W4.3 kmh W 8.5 mph13.7 kmh 30.03 in1016.9 mb 0.00 in0.0 mm 0.00 in0.0 mm 0.06 in1.5 mm
12:25 PM 66.9°F19.4°C 55.9°F13.3°C 68% 2.0 mph WNW3.2 kmh WNW 6.3 mph10.1 kmh 30.03 in1016.9 mb 0.00 in0.0 mm 0.00 in0.0 mm 0.06 in1.5 mm
12:30 PM 66.9°F19.4°C 55.9°F13.3°C 68% 2.7 mph NNW4.3 kmh NNW 9.6 mph15.4 kmh 30.02 in1016.6 mb 0.00 in0.0 mm 0.00 in0.0 mm 0.06 in1.5 mm
12:35 PM 66.9°F19.4°C 55.6°F13.1°C 67% 2.5 mph NNW4.0 kmh NNW 7.4 mph11.9 kmh 30.02 in1016.6 mb 0.00 in0.0 mm 0.00 in0.0 mm 0.06 in1.5 mm
12:40 PM 67.3°F19.6°C 55.9°F13.3°C 67% 2.2 mph SW3.5 kmh SW 8.5 mph13.7 kmh 30.01 in1016.3 mb 0.00 in0.0 mm 0.00 in0.0 mm 0.06 in1.5 mm
12:45 PM 67.5°F19.7°C 56.1°F13.4°C 67% 2.5 mph NW4.0 kmh NW 10.5 mph16.9 kmh 30.02 in1016.6 mb 0.00 in0.0 mm 0.00 in0.0 mm 0.06 in1.5 mm
12:50 PM 67.8°F19.9°C 55.2°F12.9°C 64% 5.1 mph WSW8.2 kmh WSW 7.4 mph11.9 kmh 30.01 in1016.3 mb 0.00 in0.0 mm 0.00 in0.0 mm 0.06 in1.5 mm
12:55 PM 68.5°F20.3°C 55.9°F13.3°C 64% 2.9 mph NNW4.7 kmh NNW 7.4 mph11.9 kmh 30.01 in1016.3 mb 0.00 in0.0 mm 0.00 in0.0 mm 0.06 in1.5 mm
01:00 PM 68.4°F20.2°C 55.8°F13.2°C 64% 3.8 mph SSW6.1 kmh SSW 9.6 mph15.4 kmh 30.01 in1016.3 mb 0.00 in0.0 mm 0.00 in0.0 mm 0.06 in1.5 mm
01:05 PM 67.6°F19.8°C 55.9°F13.3°C 66% 6.3 mph WSW10.1 kmh WSW 11.6 mph18.7 kmh 30.01 in1016.3 mb 0.00 in0.0 mm 0.00 in0.0 mm 0.06 in1.5 mm
01:10 PM 68.2°F20.1°C 56.3°F13.5°C 66% 2.0 mph NW3.2 kmh NW 11.6 mph18.7 kmh 30.00 in1015.9 mb 0.00 in0.0 mm 0.00 in0.0 mm 0.06 in1.5 mm
01:15 PM 68.5°F20.3°C 55.9°F13.3°C 64% 2.0 mph SW3.2 kmh SW 8.5 mph13.7 kmh 30.00 in1015.9 mb 0.00 in0.0 mm 0.00 in0.0 mm 0.06 in1.5 mm
01:20 PM 68.4°F20.2°C 55.2°F12.9°C 63% 2.2 mph NW3.5 kmh NW 7.4 mph11.9 kmh 30.01 in1016.3 mb 0.00 in0.0 mm 0.00 in0.0 mm 0.06 in1.5 mm
01:25 PM 68.2°F20.1°C 54.1°F12.3°C 61% 4.7 mph WNW7.6 kmh WNW 7.4 mph11.9 kmh 30.00 in1015.9 mb 0.00 in0.0 mm 0.00 in0.0 mm 0.06 in1.5 mm
01:31 PM 68.2°F20.1°C 54.1°F12.3°C 61% 3.6 mph NW5.8 kmh NW 7.4 mph11.9 kmh 30.00 in1015.9 mb 0.00 in0.0 mm 0.00 in0.0 mm 0.06 in1.5 mm
01:36 PM 67.6°F19.8°C 53.8°F12.1°C 61% 4.9 mph NW7.9 kmh NW 10.5 mph16.9 kmh 30.00 in1015.9 mb 0.00 in0.0 mm 0.00 in0.0 mm 0.06 in1.5 mm
01:41 PM 67.6°F19.8°C 55.0°F12.8°C 64% 4.0 mph NW6.4 kmh NW 11.6 mph18.7 kmh 30.00 in1015.9 mb 0.00 in0.0 mm 0.00 in0.0 mm 0.06 in1.5 mm
01:46 PM 67.6°F19.8°C 55.4°F13.0°C 65% 4.0 mph WSW6.4 kmh WSW 9.6 mph15.4 kmh 30.00 in1015.9 mb 0.00 in0.0 mm 0.00 in0.0 mm 0.06 in1.5 mm
01:51 PM 67.5°F19.7°C 55.2°F12.9°C 65% 5.8 mph NW9.3 kmh NW 13.9 mph22.4 kmh 30.00 in1015.9 mb 0.00 in0.0 mm 0.00 in0.0 mm 0.06 in1.5 mm
01:56 PM 67.6°F19.8°C 55.0°F12.8°C 64% 6.5 mph WSW10.5 kmh WSW 13.9 mph22.4 kmh 30.00 in1015.9 mb 0.00 in0.0 mm 0.00 in0.0 mm 0.06 in1.5 mm
02:01 PM 67.3°F19.6°C 55.0°F12.8°C 65% 5.1 mph WSW8.2 kmh WSW 12.8 mph20.6 kmh 30.00 in1015.9 mb 0.00 in0.0 mm 0.00 in0.0 mm 0.06 in1.5 mm
02:06 PM 67.3°F19.6°C 55.0°F12.8°C 65% 7.8 mph SW12.6 kmh SW 13.9 mph22.4 kmh 30.00 in1015.9 mb 0.00 in0.0 mm 0.00 in0.0 mm 0.06 in1.5 mm
02:11 PM 67.3°F19.6°C 55.0°F12.8°C 65% 5.6 mph W9.0 kmh W 12.8 mph20.6 kmh 30.01 in1016.3 mb 0.00 in0.0 mm 0.00 in0.0 mm 0.06 in1.5 mm
02:16 PM 67.1°F19.5°C 54.9°F12.7°C 65% 5.8 mph W9.3 kmh W 12.8 mph20.6 kmh 30.01 in1016.3 mb 0.00 in0.0 mm 0.00 in0.0 mm 0.06 in1.5 mm
02:21 PM 66.9°F19.4°C 54.3°F12.4°C 64% 7.4 mph NW11.9 kmh NW 12.8 mph20.6 kmh 30.01 in1016.3 mb 0.00 in0.0 mm 0.00 in0.0 mm 0.06 in1.5 mm
02:26 PM 66.7°F19.3°C 54.7°F12.6°C 65% 6.5 mph WSW10.5 kmh WSW 14.8 mph23.8 kmh 30.00 in1015.9 mb 0.00 in0.0 mm 0.00 in0.0 mm 0.06 in1.5 mm
02:31 PM 66.6°F19.2°C 54.9°F12.7°C 66% 5.8 mph SW9.3 kmh SW 11.6 mph18.7 kmh 30.01 in1016.3 mb 0.00 in0.0 mm 0.00 in0.0 mm 0.06 in1.5 mm
02:36 PM 66.0°F18.9°C 54.7°F12.6°C 67% 4.9 mph NW7.9 kmh NW 14.8 mph23.8 kmh 30.01 in1016.3 mb 0.00 in0.0 mm 0.00 in0.0 mm 0.06 in1.5 mm
02:41 PM 66.4°F19.1°C 55.0°F12.8°C 67% 5.8 mph SW9.3 kmh SW 11.6 mph18.7 kmh 30.01 in1016.3 mb 0.00 in0.0 mm 0.00 in0.0 mm 0.06 in1.5 mm
02:46 PM 66.0°F18.9°C 54.0°F12.2°C 65% 6.5 mph SW10.5 kmh SW 15.9 mph25.6 kmh 30.01 in1016.3 mb 0.00 in0.0 mm 0.00 in0.0 mm 0.06 in1.5 mm
02:51 PM 66.0°F18.9°C 54.0°F12.2°C 65% 6.7 mph SW10.8 kmh SW 12.8 mph20.6 kmh 30.00 in1015.9 mb 0.00 in0.0 mm 0.00 in0.0 mm 0.06 in1.5 mm
02:56 PM 66.4°F19.1°C 55.0°F12.8°C 67% 5.4 mph WSW8.7 kmh WSW 14.8 mph23.8 kmh 30.01 in1016.3 mb 0.00 in0.0 mm 0.00 in0.0 mm 0.06 in1.5 mm
03:01 PM 65.8°F18.8°C 53.8°F12.1°C 65% 8.5 mph SW13.7 kmh SW 12.8 mph20.6 kmh 30.01 in1016.3 mb 0.00 in0.0 mm 0.00 in0.0 mm 0.06 in1.5 mm
03:06 PM 65.5°F18.6°C 53.4°F11.9°C 65% 6.3 mph NW10.1 kmh NW 13.9 mph22.4 kmh 30.01 in1016.3 mb 0.00 in0.0 mm 0.00 in0.0 mm 0.06 in1.5 mm
03:11 PM 65.3°F18.5°C 53.2°F11.8°C 65% 6.5 mph WSW10.5 kmh WSW 10.5 mph16.9 kmh 30.01 in1016.3 mb 0.00 in0.0 mm 0.00 in0.0 mm 0.06 in1.5 mm
03:16 PM 65.7°F18.7°C 53.6°F12.0°C 65% 6.0 mph WNW9.7 kmh WNW 13.9 mph22.4 kmh 30.01 in1016.3 mb 0.00 in0.0 mm 0.00 in0.0 mm 0.06 in1.5 mm
03:21 PM 64.9°F18.3°C 53.2°F11.8°C 66% 7.2 mph WNW11.6 kmh WNW 12.8 mph20.6 kmh 30.01 in1016.3 mb 0.00 in0.0 mm 0.00 in0.0 mm 0.06 in1.5 mm
03:26 PM 64.8°F18.2°C 54.0°F12.2°C 68% 6.5 mph NW10.5 kmh NW 14.8 mph23.8 kmh 30.01 in1016.3 mb 0.00 in0.0 mm 0.00 in0.0 mm 0.06 in1.5 mm
03:31 PM 64.9°F18.3°C 54.1°F12.3°C 68% 5.8 mph W9.3 kmh W 13.9 mph22.4 kmh 30.01 in1016.3 mb 0.00 in0.0 mm 0.00 in0.0 mm 0.06 in1.5 mm
03:36 PM 64.8°F18.2°C 53.6°F12.0°C 67% 6.5 mph WNW10.5 kmh WNW 10.5 mph16.9 kmh 30.02 in1016.6 mb 0.00 in0.0 mm 0.00 in0.0 mm 0.06 in1.5 mm
03:41 PM 64.4°F18.0°C 54.0°F12.2°C 69% 8.5 mph SW13.7 kmh SW 14.8 mph23.8 kmh 30.01 in1016.3 mb 0.00 in0.0 mm 0.00 in0.0 mm 0.06 in1.5 mm
03:46 PM 64.6°F18.1°C 53.8°F12.1°C 68% 7.2 mph NW11.6 kmh NW 12.8 mph20.6 kmh 30.01 in1016.3 mb 0.00 in0.0 mm 0.00 in0.0 mm 0.06 in1.5 mm
03:51 PM 64.2°F17.9°C 53.8°F12.1°C 69% 7.4 mph W11.9 kmh W 12.8 mph20.6 kmh 30.02 in1016.6 mb 0.00 in0.0 mm 0.00 in0.0 mm 0.06 in1.5 mm
03:56 PM 64.0°F17.8°C 54.1°F12.3°C 70% 4.7 mph WSW7.6 kmh WSW 12.8 mph20.6 kmh 30.02 in1016.6 mb 0.00 in0.0 mm 0.00 in0.0 mm 0.06 in1.5 mm
04:01 PM 64.0°F17.8°C 53.6°F12.0°C 69% 8.1 mph NW13.0 kmh NW 12.8 mph20.6 kmh 30.02 in1016.6 mb 0.00 in0.0 mm 0.00 in0.0 mm 0.06 in1.5 mm
04:06 PM 64.4°F18.0°C 54.3°F12.4°C 70% 5.8 mph NW9.3 kmh NW 9.6 mph15.4 kmh 30.02 in1016.6 mb 0.00 in0.0 mm 0.00 in0.0 mm 0.06 in1.5 mm
04:11 PM 64.2°F17.9°C 54.7°F12.6°C 71% 6.9 mph NW11.1 kmh NW 11.6 mph18.7 kmh 30.02 in1016.6 mb 0.00 in0.0 mm 0.00 in0.0 mm 0.06 in1.5 mm
04:16 PM 64.2°F17.9°C 55.0°F12.8°C 72% 6.3 mph W10.1 kmh W 13.9 mph22.4 kmh 30.03 in1016.9 mb 0.00 in0.0 mm 0.00 in0.0 mm 0.06 in1.5 mm
04:21 PM 64.0°F17.8°C 54.9°F12.7°C 72% 7.2 mph WSW11.6 kmh WSW 15.9 mph25.6 kmh 30.03 in1016.9 mb 0.00 in0.0 mm 0.00 in0.0 mm 0.06 in1.5 mm
04:26 PM 64.2°F17.9°C 54.3°F12.4°C 70% 6.5 mph WNW10.5 kmh WNW 11.6 mph18.7 kmh 30.03 in1016.9 mb 0.00 in0.0 mm 0.00 in0.0 mm 0.06 in1.5 mm
04:31 PM 63.7°F17.6°C 54.5°F12.5°C 72% 5.8 mph WNW9.3 kmh WNW 11.6 mph18.7 kmh 30.03 in1016.9 mb 0.00 in0.0 mm 0.00 in0.0 mm 0.06 in1.5 mm
04:36 PM 63.1°F17.3°C 54.0°F12.2°C 72% 6.7 mph NW10.8 kmh NW 11.6 mph18.7 kmh 30.03 in1016.9 mb 0.00 in0.0 mm 0.00 in0.0 mm 0.06 in1.5 mm
04:41 PM 62.4°F16.9°C 53.6°F12.0°C 73% 6.9 mph NW11.1 kmh NW 12.8 mph20.6 kmh 30.03 in1016.9 mb 0.00 in0.0 mm 0.00 in0.0 mm 0.06 in1.5 mm
04:46 PM 62.8°F17.1°C 54.3°F12.4°C 74% 6.7 mph WSW10.8 kmh WSW 11.6 mph18.7 kmh 30.03 in1016.9 mb 0.00 in0.0 mm 0.00 in0.0 mm 0.06 in1.5 mm
04:51 PM 63.1°F17.3°C 54.3°F12.4°C 73% 6.7 mph W10.8 kmh W 10.5 mph16.9 kmh 30.03 in1016.9 mb 0.00 in0.0 mm 0.00 in0.0 mm 0.06 in1.5 mm
04:56 PM 63.0°F17.2°C 54.5°F12.5°C 74% 4.5 mph W7.2 kmh W 9.6 mph15.4 kmh 30.03 in1016.9 mb 0.00 in0.0 mm 0.00 in0.0 mm 0.06 in1.5 mm
05:01 PM 62.8°F17.1°C 54.0°F12.2°C 73% 5.4 mph WSW8.7 kmh WSW 9.6 mph15.4 kmh 30.03 in1016.9 mb 0.00 in0.0 mm 0.00 in0.0 mm 0.06 in1.5 mm
05:06 PM 63.0°F17.2°C 54.5°F12.5°C 74% 2.2 mph N3.5 kmh N 7.4 mph11.9 kmh 30.03 in1016.9 mb 0.00 in0.0 mm 0.00 in0.0 mm 0.06 in1.5 mm
05:11 PM 63.3°F17.4°C 54.1°F12.3°C 72% 2.9 mph NW4.7 kmh NW 6.3 mph10.1 kmh 30.03 in1016.9 mb 0.00 in0.0 mm 0.00 in0.0 mm 0.06 in1.5 mm
05:16 PM 63.1°F17.3°C 53.6°F12.0°C 71% 3.8 mph N6.1 kmh N 8.5 mph13.7 kmh 30.03 in1016.9 mb 0.00 in0.0 mm 0.00 in0.0 mm 0.06 in1.5 mm
05:21 PM 63.1°F17.3°C 54.0°F12.2°C 72% 3.4 mph NW5.5 kmh NW 7.4 mph11.9 kmh 30.03 in1016.9 mb 0.00 in0.0 mm 0.00 in0.0 mm 0.06 in1.5 mm
05:26 PM 63.1°F17.3°C 54.0°F12.2°C 72% 3.1 mph WSW5.0 kmh WSW 5.4 mph8.7 kmh 30.03 in1016.9 mb 0.00 in0.0 mm 0.00 in0.0 mm 0.06 in1.5 mm
05:31 PM 63.1°F17.3°C 54.3°F12.4°C 73% 1.8 mph WNW2.9 kmh WNW 5.4 mph8.7 kmh 30.03 in1016.9 mb 0.00 in0.0 mm 0.00 in0.0 mm 0.06 in1.5 mm
05:36 PM 63.3°F17.4°C 54.1°F12.3°C 72% 2.7 mph NW4.3 kmh NW 5.4 mph8.7 kmh 30.03 in1016.9 mb 0.00 in0.0 mm 0.00 in0.0 mm 0.06 in1.5 mm
05:41 PM 63.0°F17.2°C 54.1°F12.3°C 73% 1.8 mph NW2.9 kmh NW 5.4 mph8.7 kmh 30.03 in1016.9 mb 0.00 in0.0 mm 0.00 in0.0 mm 0.06 in1.5 mm
05:46 PM 62.4°F16.9°C 53.6°F12.0°C 73% 2.2 mph NW3.5 kmh NW 6.3 mph10.1 kmh 30.03 in1016.9 mb 0.00 in0.0 mm 0.00 in0.0 mm 0.06 in1.5 mm
05:51 PM 62.1°F16.7°C 54.0°F12.2°C 75% 0.7 mph SW1.1 kmh SW 5.4 mph8.7 kmh 30.02 in1016.6 mb 0.00 in0.0 mm 0.00 in0.0 mm 0.06 in1.5 mm
05:56 PM 61.5°F16.4°C 53.6°F12.0°C 75% 0.2 mph NW0.3 kmh NW 2.0 mph3.2 kmh 30.03 in1016.9 mb 0.00 in0.0 mm 0.00 in0.0 mm 0.06 in1.5 mm
06:01 PM 61.3°F16.3°C 53.8°F12.1°C 76% 0.2 mph NW0.3 kmh NW 2.0 mph3.2 kmh 30.02 in1016.6 mb 0.00 in0.0 mm 0.00 in0.0 mm 0.06 in1.5 mm
06:06 PM 61.0°F16.1°C 53.4°F11.9°C 76% 0.4 mph WSW0.6 kmh WSW 2.0 mph3.2 kmh 30.02 in1016.6 mb 0.00 in0.0 mm 0.00 in0.0 mm 0.06 in1.5 mm
06:11 PM 60.6°F15.9°C 53.4°F11.9°C 77% 0.2 mph WNW0.3 kmh WNW 2.0 mph3.2 kmh 30.02 in1016.6 mb 0.00 in0.0 mm 0.00 in0.0 mm 0.06 in1.5 mm
06:16 PM 60.4°F15.8°C 53.6°F12.0°C 78% Calm Calm 1.1 mph1.8 kmh 30.02 in1016.6 mb 0.00 in0.0 mm 0.00 in0.0 mm 0.06 in1.5 mm
06:21 PM 60.3°F15.7°C 53.8°F12.1°C 79% 0.7 mph WNW1.1 kmh WNW 3.1 mph5.0 kmh 30.02 in1016.6 mb 0.00 in0.0 mm 0.00 in0.0 mm 0.06 in1.5 mm
06:26 PM 60.1°F15.6°C 53.6°F12.0°C 79% 1.3 mph NW2.1 kmh NW 3.1 mph5.0 kmh 30.02 in1016.6 mb 0.00 in0.0 mm 0.00 in0.0 mm 0.06 in1.5 mm
06:31 PM 59.7°F15.4°C 53.6°F12.0°C 80% 0.9 mph NW1.4 kmh NW 3.1 mph5.0 kmh 30.03 in1016.9 mb 0.00 in0.0 mm 0.00 in0.0 mm 0.06 in1.5 mm
06:36 PM 59.5°F15.3°C 53.8°F12.1°C 81% 2.5 mph NW4.0 kmh NW 4.3 mph6.9 kmh 30.03 in1016.9 mb 0.00 in0.0 mm 0.00 in0.0 mm 0.06 in1.5 mm
06:41 PM 59.4°F15.2°C 53.8°F12.1°C 82% 0.7 mph NW1.1 kmh NW 4.3 mph6.9 kmh 30.03 in1016.9 mb 0.00 in0.0 mm 0.00 in0.0 mm 0.06 in1.5 mm
06:46 PM 59.2°F15.1°C 53.6°F12.0°C 82% 1.3 mph NW2.1 kmh NW 3.1 mph5.0 kmh 30.03 in1016.9 mb 0.00 in0.0 mm 0.00 in0.0 mm 0.06 in1.5 mm
06:51 PM 59.0°F15.0°C 53.6°F12.0°C 82% 2.0 mph NW3.2 kmh NW 4.3 mph6.9 kmh 30.04 in1017.3 mb 0.00 in0.0 mm 0.00 in0.0 mm 0.06 in1.5 mm
06:56 PM 58.8°F14.9°C 53.6°F12.0°C 83% 1.6 mph NW2.6 kmh NW 3.1 mph5.0 kmh 30.04 in1017.3 mb 0.00 in0.0 mm 0.00 in0.0 mm 0.06 in1.5 mm
07:01 PM 58.6°F14.8°C 53.4°F11.9°C 83% 2.2 mph NW3.5 kmh NW 5.4 mph8.7 kmh 30.04 in1017.3 mb 0.00 in0.0 mm 0.00 in0.0 mm 0.06 in1.5 mm
07:06 PM 58.6°F14.8°C 53.8°F12.1°C 84% 0.9 mph WNW1.4 kmh WNW 3.1 mph5.0 kmh 30.04 in1017.3 mb 0.00 in0.0 mm 0.00 in0.0 mm 0.06 in1.5 mm
07:11 PM 58.5°F14.7°C 53.6°F12.0°C 84% 0.2 mph NNW0.3 kmh NNW 3.1 mph5.0 kmh 30.04 in1017.3 mb 0.00 in0.0 mm 0.00 in0.0 mm 0.06 in1.5 mm
07:16 PM 58.5°F14.7°C 53.6°F12.0°C 84% 2.5 mph WNW4.0 kmh WNW 5.4 mph8.7 kmh 30.05 in1017.6 mb 0.00 in0.0 mm 0.00 in0.0 mm 0.06 in1.5 mm
07:21 PM 58.5°F14.7°C 53.6°F12.0°C 84% 1.1 mph NW1.8 kmh NW 4.3 mph6.9 kmh 30.05 in1017.6 mb 0.00 in0.0 mm 0.00 in0.0 mm 0.06 in1.5 mm
07:26 PM 58.3°F14.6°C 53.8°F12.1°C 85% 1.6 mph W2.6 kmh W 4.3 mph6.9 kmh 30.05 in1017.6 mb 0.00 in0.0 mm 0.00 in0.0 mm 0.06 in1.5 mm
07:31 PM 58.1°F14.5°C 53.6°F12.0°C 85% 1.1 mph WNW1.8 kmh WNW 4.3 mph6.9 kmh 30.06 in1017.9 mb 0.00 in0.0 mm 0.00 in0.0 mm 0.06 in1.5 mm
07:36 PM 57.9°F14.4°C 53.4°F11.9°C 85% 1.1 mph WNW1.8 kmh WNW 3.1 mph5.0 kmh 30.06 in1017.9 mb 0.00 in0.0 mm 0.00 in0.0 mm 0.06 in1.5 mm
07:41 PM 57.9°F14.4°C 53.8°F12.1°C 86% 1.1 mph NW1.8 kmh NW 3.1 mph5.0 kmh 30.06 in1017.9 mb 0.00 in0.0 mm 0.00 in0.0 mm 0.06 in1.5 mm
07:46 PM 57.7°F14.3°C 53.6°F12.0°C 86% 0.4 mph N0.6 kmh N 3.1 mph5.0 kmh 30.06 in1017.9 mb 0.00 in0.0 mm 0.00 in0.0 mm 0.06 in1.5 mm
07:51 PM 57.7°F14.3°C 53.6°F12.0°C 86% 1.6 mph NW2.6 kmh NW 3.1 mph5.0 kmh 30.07 in1018.3 mb 0.00 in0.0 mm 0.00 in0.0 mm 0.06 in1.5 mm
07:56 PM 57.6°F14.2°C 53.4°F11.9°C 86% Calm Calm 3.1 mph5.0 kmh 30.07 in1018.3 mb 0.00 in0.0 mm 0.00 in0.0 mm 0.06 in1.5 mm
08:01 PM 57.6°F14.2°C 53.4°F11.9°C 86% Calm Calm -- 30.07 in1018.3 mb 0.00 in0.0 mm 0.00 in0.0 mm 0.06 in1.5 mm
08:06 PM 57.4°F14.1°C 53.6°F12.0°C 87% Calm Calm -- 30.07 in1018.3 mb 0.00 in0.0 mm 0.00 in0.0 mm 0.06 in1.5 mm
08:11 PM 57.4°F14.1°C 53.6°F12.0°C 87% Calm Calm -- 30.07 in1018.3 mb 0.00 in0.0 mm 0.00 in0.0 mm 0.06 in1.5 mm
08:16 PM 57.2°F14.0°C 53.4°F11.9°C 87% Calm Calm 1.1 mph1.8 kmh 30.07 in1018.3 mb 0.00 in0.0 mm 0.00 in0.0 mm 0.06 in1.5 mm
08:21 PM 57.2°F14.0°C 53.4°F11.9°C 87% Calm Calm 1.1 mph1.8 kmh 30.07 in1018.3 mb 0.00 in0.0 mm 0.00 in0.0 mm 0.06 in1.5 mm
08:26 PM 56.8°F13.8°C 53.1°F11.7°C 87% Calm Calm -- 30.07 in1018.3 mb 0.00 in0.0 mm 0.00 in0.0 mm 0.06 in1.5 mm
08:31 PM 56.8°F13.8°C 53.1°F11.7°C 87% Calm Calm -- 30.07 in1018.3 mb 0.00 in0.0 mm 0.00 in0.0 mm 0.06 in1.5 mm
08:36 PM 56.8°F13.8°C 53.2°F11.8°C 88% Calm Calm 1.1 mph1.8 kmh 30.07 in1018.3 mb 0.00 in0.0 mm 0.00 in0.0 mm 0.06 in1.5 mm
08:41 PM 56.8°F13.8°C 53.2°F11.8°C 88% Calm Calm 1.1 mph1.8 kmh 30.08 in1018.6 mb 0.00 in0.0 mm 0.00 in0.0 mm 0.06 in1.5 mm
08:46 PM 56.8°F13.8°C 53.2°F11.8°C 88% Calm Calm 1.1 mph1.8 kmh 30.08 in1018.6 mb 0.00 in0.0 mm 0.00 in0.0 mm 0.06 in1.5 mm
08:51 PM 56.8°F13.8°C 53.2°F11.8°C 88% Calm Calm -- 30.08 in1018.6 mb 0.00 in0.0 mm 0.00 in0.0 mm 0.06 in1.5 mm
08:56 PM 56.7°F13.7°C 53.1°F11.7°C 88% Calm Calm -- 30.08 in1018.6 mb 0.00 in0.0 mm 0.00 in0.0 mm 0.06 in1.5 mm
09:01 PM 56.7°F13.7°C 53.1°F11.7°C 88% Calm Calm -- 30.08 in1018.6 mb 0.00 in0.0 mm 0.00 in0.0 mm 0.06 in1.5 mm
09:06 PM 56.7°F13.7°C 53.1°F11.7°C 88% Calm Calm -- 30.09 in1019.0 mb 0.00 in0.0 mm 0.00 in0.0 mm 0.06 in1.5 mm
09:11 PM 56.5°F13.6°C 52.9°F11.6°C 88% Calm Calm -- 30.08 in1018.6 mb 0.00 in0.0 mm 0.00 in0.0 mm 0.06 in1.5 mm
09:16 PM 56.5°F13.6°C 52.9°F11.6°C 88% Calm Calm -- 30.08 in1018.6 mb 0.00 in0.0 mm 0.00 in0.0 mm 0.06 in1.5 mm
09:21 PM 56.3°F13.5°C 52.9°F11.6°C 88% Calm Calm -- 30.09 in1019.0 mb 0.00 in0.0 mm 0.00 in0.0 mm 0.06 in1.5 mm
09:26 PM 56.1°F13.4°C 52.9°F11.6°C 89% Calm Calm -- 30.09 in1019.0 mb 0.00 in0.0 mm 0.00 in0.0 mm 0.06 in1.5 mm
09:31 PM 55.9°F13.3°C 52.7°F11.5°C 89% Calm Calm -- 30.09 in1019.0 mb 0.00 in0.0 mm 0.00 in0.0 mm 0.06 in1.5 mm
09:36 PM 55.9°F13.3°C 52.7°F11.5°C 89% Calm Calm -- 30.09 in1019.0 mb 0.00 in0.0 mm 0.00 in0.0 mm 0.06 in1.5 mm
09:41 PM 55.8°F13.2°C 52.5°F11.4°C 89% Calm Calm -- 30.08 in1018.6 mb 0.00 in0.0 mm 0.00 in0.0 mm 0.06 in1.5 mm
09:46 PM 55.6°F13.1°C 52.3°F11.3°C 89% Calm Calm -- 30.08 in1018.6 mb 0.00 in0.0 mm 0.00 in0.0 mm 0.06 in1.5 mm
09:51 PM 55.2°F12.9°C 52.0°F11.1°C 89% Calm Calm -- 30.08 in1018.6 mb 0.00 in0.0 mm 0.00 in0.0 mm 0.06 in1.5 mm
09:56 PM 55.2°F12.9°C 52.3°F11.3°C 90% Calm Calm -- 30.08 in1018.6 mb 0.00 in0.0 mm 0.00 in0.0 mm 0.06 in1.5 mm
10:01 PM 55.0°F12.8°C 52.2°F11.2°C 90% Calm Calm -- 30.08 in1018.6 mb 0.00 in0.0 mm 0.00 in0.0 mm 0.06 in1.5 mm
10:06 PM 54.9°F12.7°C 52.0°F11.1°C 90% Calm Calm -- 30.08 in1018.6 mb 0.00 in0.0 mm 0.00 in0.0 mm 0.06 in1.5 mm
10:11 PM 54.7°F12.6°C 51.8°F11.0°C 90% Calm Calm -- 30.08 in1018.6 mb 0.00 in0.0 mm 0.00 in0.0 mm 0.06 in1.5 mm
10:16 PM 54.7°F12.6°C 52.2°F11.2°C 91% Calm Calm -- 30.09 in1019.0 mb 0.00 in0.0 mm 0.00 in0.0 mm 0.06 in1.5 mm
10:21 PM 54.9°F12.7°C 52.3°F11.3°C 91% Calm Calm -- 30.09 in1019.0 mb 0.00 in0.0 mm 0.00 in0.0 mm 0.06 in1.5 mm
10:26 PM 55.2°F12.9°C 52.9°F11.6°C 92% Calm Calm -- 30.09 in1019.0 mb 0.00 in0.0 mm 0.00 in0.0 mm 0.06 in1.5 mm
10:31 PM 55.2°F12.9°C 52.7°F11.5°C 91% Calm Calm -- 30.09 in1019.0 mb 0.00 in0.0 mm 0.00 in0.0 mm 0.06 in1.5 mm
10:36 PM 54.9°F12.7°C 52.0°F11.1°C 90% Calm Calm -- 30.09 in1019.0 mb 0.00 in0.0 mm 0.00 in0.0 mm 0.06 in1.5 mm
10:41 PM 54.7°F12.6°C 52.2°F11.2°C 91% Calm Calm -- 30.09 in1019.0 mb 0.00 in0.0 mm 0.00 in0.0 mm 0.06 in1.5 mm
10:46 PM 54.3°F12.4°C 51.8°F11.0°C 91% Calm Calm -- 30.09 in1019.0 mb 0.00 in0.0 mm 0.00 in0.0 mm 0.06 in1.5 mm
10:51 PM 54.3°F12.4°C 51.8°F11.0°C 91% Calm Calm -- 30.09 in1019.0 mb 0.00 in0.0 mm 0.00 in0.0 mm 0.06 in1.5 mm
10:56 PM 54.1°F12.3°C 51.6°F10.9°C 91% Calm Calm -- 30.09 in1019.0 mb 0.00 in0.0 mm 0.00 in0.0 mm 0.06 in1.5 mm
11:01 PM 54.1°F12.3°C 51.8°F11.0°C 92% Calm Calm -- 30.09 in1019.0 mb 0.00 in0.0 mm 0.00 in0.0 mm 0.06 in1.5 mm
11:06 PM 54.1°F12.3°C 51.6°F10.9°C 91% Calm Calm -- 30.09 in1019.0 mb 0.00 in0.0 mm 0.00 in0.0 mm 0.06 in1.5 mm
11:11 PM 54.0°F12.2°C 51.4°F10.8°C 91% Calm Calm -- 30.09 in1019.0 mb 0.00 in0.0 mm 0.00 in0.0 mm 0.06 in1.5 mm
11:16 PM 53.8°F12.1°C 51.4°F10.8°C 92% Calm Calm -- 30.09 in1019.0 mb 0.00 in0.0 mm 0.00 in0.0 mm 0.06 in1.5 mm
11:21 PM 53.4°F11.9°C 50.9°F10.5°C 91% Calm Calm -- 30.09 in1019.0 mb 0.00 in0.0 mm 0.00 in0.0 mm 0.06 in1.5 mm
11:26 PM 53.4°F11.9°C 51.1°F10.6°C 92% Calm Calm -- 30.09 in1019.0 mb 0.00 in0.0 mm 0.00 in0.0 mm 0.06 in1.5 mm
11:31 PM 53.8°F12.1°C 51.8°F11.0°C 93% Calm Calm 1.1 mph1.8 kmh 30.09 in1019.0 mb 0.00 in0.0 mm 0.00 in0.0 mm 0.06 in1.5 mm
11:36 PM 54.1°F12.3°C 52.2°F11.2°C 93% Calm Calm -- 30.09 in1019.0 mb 0.00 in0.0 mm 0.00 in0.0 mm 0.06 in1.5 mm
11:41 PM 54.1°F12.3°C 52.2°F11.2°C 93% Calm Calm 1.1 mph1.8 kmh 30.09 in1019.0 mb 0.00 in0.0 mm 0.00 in0.0 mm 0.06 in1.5 mm
11:46 PM 54.0°F12.2°C 51.6°F10.9°C 92% Calm Calm -- 30.09 in1019.0 mb 0.00 in0.0 mm 0.00 in0.0 mm 0.06 in1.5 mm
11:51 PM 54.0°F12.2°C 52.0°F11.1°C 93% Calm Calm -- 30.09 in1019.0 mb 0.00 in0.0 mm 0.00 in0.0 mm 0.06 in1.5 mm
11:56 PM 54.0°F12.2°C 52.0°F11.1°C 93% Calm Calm -- 30.09 in1019.0 mb 0.00 in0.0 mm 0.00 in0.0 mm 0.06 in1.5 mm